Station Historical Data
Daily Summary for June 8, 2017 Units:  English    Metric   Both
« Previous Day
Next Day »
Daily Weekly Monthly Yearly Custom
  High: Low: Average:
Temperature: 78.1 °F 63.9 °F 70.3 °F
Dew Point: 63.7 °F 57.0 °F 61 °F
Humidity: 90% 49% 74%
Wind Speed: 1.0mph 0.0mph 0mph
Wind Gust: 3.0mph - -
Wind- - NW
Pressure: 29.93 in 29.84 in -
Precipitation: 0.00 in    
Historical Graphs
 
 
Tabular Data for June 8, 2017
Time Temperature Dew Point Pressure Wind Wind Speed Wind Gust Humidity Rainfall Rate (Hourly) Conditions
00:00 68.8 °F 62.4 °F 29.86 in Calm     80% 0.00 in SCT
00:10 68.7 °F 62.3 °F 29.86 in Calm     80% 0.00 in SCT
00:20 68.4 °F 62.4 °F 29.86 in Calm     81% 0.00 in SCT
00:30 68.3 °F 62.6 °F 29.86 in Calm     82% 0.00 in SCT
00:40 68.1 °F 62.4 °F 29.87 in Calm     82% 0.00 in SCT
00:50 67.9 °F 62.2 °F 29.87 in Calm     82% 0.00 in SCT
01:10 67.5 °F 62.5 °F 29.87 in Calm     84% 0.00 in SCT
01:20 67.3 °F 62.3 °F 29.87 in Calm     84% 0.00 in SCT
01:30 67.3 °F 62.6 °F 29.87 in Calm     85% 0.00 in SCT
01:40 67.4 °F 62.7 °F 29.87 in Calm     85% 0.00 in SCT
01:50 67.4 °F 63.1 °F 29.87 in Calm     86% 0.00 in SCT
02:00 67.3 °F 63.0 °F 29.87 in Calm     86% 0.00 in SCT
02:10 67.1 °F 63.4 °F 29.86 in Calm     88% 0.00 in SCT
02:20 67.0 °F 63.3 °F 29.86 in Calm     88% 0.00 in SCT
02:30 66.9 °F 63.6 °F 29.87 in Calm     89% 0.00 in SCT
02:40 66.9 °F 63.6 °F 29.86 in Calm     89% 0.00 in SCT
02:50 66.7 °F 63.7 °F 29.86 in Calm     90% 0.00 in SCT
03:00 66.6 °F 63.6 °F 29.86 in Calm     90% 0.00 in SCT
03:10 66.6 °F 63.5 °F 29.86 in Calm     90% 0.00 in SCT
03:20 66.3 °F 63.0 °F 29.86 in Calm     89% 0.00 in SCT
03:30 65.4 °F 61.8 °F 29.86 in Calm     88% 0.00 in SCT
03:40 65.4 °F 61.8 °F 29.86 in Calm     88% 0.00 in SCT
03:50 65.4 °F 61.8 °F 29.86 in Calm     88% 0.00 in SCT
04:00 65.4 °F 61.8 °F 29.86 in Calm     88% 0.00 in SCT
04:10 65.4 °F 61.8 °F 29.86 in Calm     88% 0.00 in SCT
04:20 65.4 °F 61.8 °F 29.86 in Calm     88% 0.00 in SCT
04:30 65.4 °F 61.8 °F 29.86 in Calm     88% 0.00 in SCT
04:40 65.4 °F 61.8 °F 29.86 in Calm     88% 0.00 in SCT
04:50 65.4 °F 61.8 °F 29.86 in Calm     88% 0.00 in SCT
05:00 65.4 °F 61.8 °F 29.86 in Calm     88% 0.00 in SCT
05:10 65.4 °F 61.8 °F 29.86 in Calm     88% 0.00 in SCT
05:20 65.4 °F 61.8 °F 29.86 in Calm     88% 0.00 in SCT
05:30 65.4 °F 61.8 °F 29.87 in Calm     88% 0.00 in SCT
05:40 65.4 °F 61.8 °F 29.87 in Calm     88% 0.00 in SCT
05:50 65.4 °F 61.8 °F 29.88 in Calm     88% 0.00 in SCT
06:00 65.4 °F 61.8 °F 29.88 in Calm     88% 0.00 in SCT
06:20 65.4 °F 61.8 °F 29.88 in Calm     88% 0.00 in SCT
06:30 65.4 °F 61.8 °F 29.89 in Calm     88% 0.00 in SCT
06:40 65.4 °F 61.8 °F 29.89 in Calm     88% 0.00 in SCT
06:50 65.4 °F 61.8 °F 29.89 in Calm     88% 0.00 in SCT
07:00 65.4 °F 61.8 °F 29.90 in Calm     88% 0.00 in SCT
07:10 65.4 °F 61.8 °F 29.90 in Calm     88% 0.00 in SCT
07:20 65.4 °F 61.8 °F 29.90 in Calm     88% 0.00 in SCT
07:30 65.4 °F 61.8 °F 29.90 in Calm     88% 0.00 in SCT
07:40 65.4 °F 61.8 °F 29.90 in Calm     88% 0.00 in SCT
07:50 63.9 °F 60.9 °F 29.90 in Calm     90% 0.00 in SCT
08:00 64.3 °F 61.0 °F 29.90 in Calm     89% 0.00 in SCT
08:10 64.9 °F 61.2 °F 29.91 in Calm     88% 0.00 in SCT
08:20 65.3 °F 61.3 °F 29.91 in Calm     87% 0.00 in SCT
08:30 65.6 °F 61.3 °F 29.91 in Calm     86% 0.00 in SCT
08:40 65.7 °F 61.1 °F 29.91 in Calm     85% 0.00 in SCT
08:50 65.9 °F 60.9 °F 29.91 in Calm   1.0 mph 84% 0.00 in SCT
09:00 66.3 °F 60.9 °F 29.92 in Calm   1.0 mph 83% 0.00 in SCT
09:10 66.6 °F 60.9 °F 29.92 in Calm   1.0 mph 82% 0.00 in SCT
09:20 67.3 °F 61.6 °F 29.92 in Calm   2.0 mph 82% 0.00 in SCT
09:30 67.8 °F 61.7 °F 29.92 in NW 1.0 mph 2.0 mph 81% 0.00 in SCT
09:40 67.7 °F 60.2 °F 29.92 in WNW 1.0 mph 2.0 mph 77% 0.00 in SCT
09:50 67.8 °F 61.4 °F 29.93 in Calm   1.0 mph 80% 0.00 in SCT
10:00 68.4 °F 60.9 °F 29.93 in Calm   2.0 mph 77% 0.00 in SCT
10:10 68.7 °F 61.2 °F 29.93 in Calm   1.0 mph 77% 0.00 in SCT
10:20 69.3 °F 61.8 °F 29.93 in Calm   1.0 mph 77% 0.00 in SCT
10:30 70.1 °F 61.1 °F 29.93 in Calm   3.0 mph 73% 0.00 in SCT
10:40 70.5 °F 60.6 °F 29.93 in Calm   3.0 mph 71% 0.00 in SCT
10:50 71.0 °F 61.1 °F 29.93 in Calm   2.0 mph 71% 0.00 in SCT
11:00 71.1 °F 61.6 °F 29.93 in Calm   2.0 mph 72% 0.00 in SCT
11:10 71.1 °F 60.4 °F 29.93 in Calm   2.0 mph 69% 0.00 in SCT
11:20 70.5 °F 61.1 °F 29.93 in Calm   2.0 mph 72% 0.00 in SCT
11:30 70.2 °F 60.8 °F 29.93 in Calm   2.0 mph 72% 0.00 in SCT
11:40 71.8 °F 60.7 °F 29.93 in Calm   2.0 mph 68% 0.00 in SCT
11:50 72.4 °F 61.2 °F 29.93 in Calm   2.0 mph 68% 0.00 in SCT
12:00 72.8 °F 59.0 °F 29.93 in Calm   3.0 mph 62% 0.00 in SCT
12:10 72.8 °F 59.5 °F 29.93 in Calm   2.0 mph 63% 0.00 in SCT
12:20 72.3 °F 61.2 °F 29.93 in Calm   1.0 mph 68% 0.00 in SCT
12:30 73.5 °F 61.0 °F 29.93 in Calm   2.0 mph 65% 0.00 in SCT
12:40 74.6 °F 60.2 °F 29.92 in Calm   2.0 mph 61% 0.00 in SCT
12:50 75.8 °F 60.4 °F 29.92 in Calm   2.0 mph 59% 0.00 in SCT
13:00 74.7 °F 58.5 °F 29.93 in Calm   1.0 mph 57% 0.00 in SCT
13:10 74.7 °F 59.9 °F 29.92 in NW 1.0 mph 1.0 mph 60% 0.00 in SCT
13:20 74.9 °F 60.1 °F 29.92 in Calm   1.0 mph 60% 0.00 in SCT
13:30 74.4 °F 60.0 °F 29.92 in Calm   1.0 mph 61% 0.00 in SCT
13:40 75.2 °F 61.3 °F 29.92 in Calm   2.0 mph 62% 0.00 in SCT
13:50 75.5 °F 60.2 °F 29.92 in Calm     59% 0.00 in SCT
14:00 75.8 °F 60.9 °F 29.92 in Calm   1.0 mph 60% 0.00 in SCT
14:10 76.6 °F 59.7 °F 29.91 in Calm   2.0 mph 56% 0.00 in SCT
14:20 77.3 °F 59.9 °F 29.91 in Calm   1.0 mph 55% 0.00 in SCT
14:30 77.6 °F 58.6 °F 29.90 in Calm   2.0 mph 52% 0.00 in SCT
14:40 77.2 °F 59.3 °F 29.90 in Calm   1.0 mph 54% 0.00 in SCT
14:50 77.4 °F 58.4 °F 29.90 in Calm   2.0 mph 52% 0.00 in SCT
15:00 76.5 °F 58.6 °F 29.90 in Calm   2.0 mph 54% 0.00 in SCT
15:10 76.8 °F 60.4 °F 29.89 in Calm   1.0 mph 57% 0.00 in SCT
15:20 76.9 °F 57.4 °F 29.88 in Calm   1.0 mph 51% 0.00 in SCT
15:30 76.9 °F 59.5 °F 29.88 in Calm   1.0 mph 55% 0.00 in SCT
15:40 77.2 °F 59.8 °F 29.87 in Calm   1.0 mph 55% 0.00 in SCT
15:50 77.0 °F 58.5 °F 29.87 in Calm   1.0 mph 53% 0.00 in SCT
16:00 77.0 °F 58.6 °F 29.87 in Calm   1.0 mph 53% 0.00 in SCT
16:10 77.4 °F 58.4 °F 29.86 in Calm   1.0 mph 52% 0.00 in SCT
16:20 77.2 °F 57.1 °F 29.86 in Calm   3.0 mph 50% 0.00 in SCT
16:30 77.7 °F 57.0 °F 29.86 in Calm   2.0 mph 49% 0.00 in SCT
16:40 77.4 °F 57.3 °F 29.86 in Calm   2.0 mph 50% 0.00 in SCT
16:50 76.6 °F 59.2 °F 29.85 in Calm   2.0 mph 55% 0.00 in SCT
17:00 76.0 °F 60.2 °F 29.85 in Calm     58% 0.00 in SCT
17:10 77.3 °F 58.3 °F 29.85 in Calm   1.0 mph 52% 0.00 in SCT
17:20 78.1 °F 59.6 °F 29.84 in Calm     53% 0.00 in SCT
17:30 77.1 °F 60.2 °F 29.84 in Calm     56% 0.00 in SCT
17:40 75.3 °F 59.5 °F 29.84 in Calm   1.0 mph 58% 0.00 in SCT
17:50 74.8 °F 60.9 °F 29.84 in Calm     62% 0.00 in SCT
18:00 75.5 °F 59.7 °F 29.84 in Calm     58% 0.00 in SCT
18:10 75.3 °F 59.0 °F 29.84 in Calm     57% 0.00 in SCT
18:20 74.8 °F 61.4 °F 29.84 in Calm     63% 0.00 in SCT
18:30 74.7 °F 61.7 °F 29.84 in Calm     64% 0.00 in SCT
18:40 74.4 °F 61.4 °F 29.84 in Calm     64% 0.00 in SCT
18:50 74.0 °F 61.9 °F 29.84 in Calm     66% 0.00 in SCT
19:00 74.0 °F 61.5 °F 29.84 in Calm     65% 0.00 in SCT
19:10 74.2 °F 62.1 °F 29.84 in Calm     66% 0.00 in SCT
19:20 74.3 °F 60.9 °F 29.84 in Calm   1.0 mph 63% 0.00 in SCT
19:30 74.0 °F 60.1 °F 29.85 in Calm     62% 0.00 in SCT
19:40 73.6 °F 60.7 °F 29.85 in Calm     64% 0.00 in SCT
19:50 73.2 °F 59.8 °F 29.85 in Calm     63% 0.00 in SCT
20:00 72.9 °F 61.3 °F 29.85 in Calm     67% 0.00 in SCT
20:10 72.6 °F 61.9 °F 29.86 in Calm     69% 0.00 in SCT
20:20 72.4 °F 61.2 °F 29.85 in Calm     68% 0.00 in SCT
20:30 72.3 °F 62.0 °F 29.86 in Calm     70% 0.00 in SCT
20:40 72.1 °F 61.4 °F 29.86 in Calm     69% 0.00 in SCT
20:50 71.8 °F 61.9 °F 29.86 in Calm     71% 0.00 in SCT
21:00 71.4 °F 61.5 °F 29.86 in Calm     71% 0.00 in SCT
21:10 70.9 °F 61.1 °F 29.86 in Calm     71% 0.00 in SCT
21:20 70.6 °F 61.1 °F 29.87 in Calm     72% 0.00 in SCT
21:30 70.1 °F 60.6 °F 29.87 in Calm     72% 0.00 in SCT
21:40 69.6 °F 60.6 °F 29.87 in Calm     73% 0.00 in SCT
21:50 69.4 °F 60.8 °F 29.87 in Calm     74% 0.00 in SCT
22:00 69.2 °F 60.6 °F 29.88 in Calm     74% 0.00 in SCT
22:10 68.7 °F 60.5 °F 29.88 in Calm     75% 0.00 in SCT
22:20 68.4 °F 60.9 °F 29.88 in Calm     77% 0.00 in SCT
22:30 68.2 °F 61.1 °F 29.88 in Calm     78% 0.00 in SCT
22:40 67.9 °F 60.8 °F 29.89 in Calm     78% 0.00 in SCT
22:50 67.7 °F 61.0 °F 29.89 in Calm     79% 0.00 in SCT
23:00 67.5 °F 61.1 °F 29.90 in Calm     80% 0.00 in SCT
23:10 67.3 °F 60.6 °F 29.90 in Calm     79% 0.00 in SCT
23:20 67.3 °F 60.9 °F 29.90 in Calm     80% 0.00 in SCT
23:40 67.3 °F 60.9 °F 29.90 in Calm     80% 0.00 in SCT
23:50 67.4 °F 61.0 °F 29.90 in Calm     80% 0.00 in SCT
Piedmont Bend
Compliments of Weather Underground - 4 mb